sensor_id;sensor_type;location;lat;lon;timestamp;temperature;humidity
4356;DHT22;64374;51.482;7.408;2023-04-02T00:01:25;11.40;99.90
4356;DHT22;64374;51.482;7.408;2023-04-02T00:04:16;11.00;99.90
4356;DHT22;64374;51.482;7.408;2023-04-02T00:06:51;11.10;99.90
4356;DHT22;64374;51.482;7.408;2023-04-02T00:09:34;11.00;99.90
4356;DHT22;64374;51.482;7.408;2023-04-02T00:12:17;11.00;99.90
4356;DHT22;64374;51.482;7.408;2023-04-02T00:14:48;11.00;99.90
4356;DHT22;64374;51.482;7.408;2023-04-02T00:17:19;11.00;99.90
4356;DHT22;64374;51.482;7.408;2023-04-02T00:19:51;11.10;99.90
4356;DHT22;64374;51.482;7.408;2023-04-02T00:22:26;11.20;99.90
4356;DHT22;64374;51.482;7.408;2023-04-02T00:25:16;11.30;99.90
4356;DHT22;64374;51.482;7.408;2023-04-02T00:27:47;11.30;99.90
4356;DHT22;64374;51.482;7.408;2023-04-02T00:30:17;11.30;99.90
4356;DHT22;64374;51.482;7.408;2023-04-02T00:32:45;11.20;99.90
4356;DHT22;64374;51.482;7.408;2023-04-02T00:35:19;11.20;99.90
4356;DHT22;64374;51.482;7.408;2023-04-02T00:37:49;11.10;99.90
4356;DHT22;64374;51.482;7.408;2023-04-02T00:40:21;11.20;99.90
4356;DHT22;64374;51.482;7.408;2023-04-02T00:42:54;11.20;99.90
4356;DHT22;64374;51.482;7.408;2023-04-02T00:45:25;11.10;99.90
4356;DHT22;64374;51.482;7.408;2023-04-02T00:47:56;11.20;99.90
4356;DHT22;64374;51.482;7.408;2023-04-02T00:50:30;11.10;99.90
4356;DHT22;64374;51.482;7.408;2023-04-02T00:53:04;11.10;99.90
4356;DHT22;64374;51.482;7.408;2023-04-02T00:55:38;10.90;99.90
4356;DHT22;64374;51.482;7.408;2023-04-02T00:58:18;10.60;99.90
4356;DHT22;64374;51.482;7.408;2023-04-02T01:00:50;10.70;99.90
4356;DHT22;64374;51.482;7.408;2023-04-02T01:03:31;10.60;99.90
4356;DHT22;64374;51.482;7.408;2023-04-02T01:06:07;10.60;99.90
4356;DHT22;64374;51.482;7.408;2023-04-02T01:08:55;10.40;99.90
4356;DHT22;64374;51.482;7.408;2023-04-02T01:11:43;10.60;99.90
4356;DHT22;64374;51.482;7.408;2023-04-02T01:14:22;10.60;99.90
4356;DHT22;64374;51.482;7.408;2023-04-02T01:16:59;10.50;99.90
4356;DHT22;64374;51.482;7.408;2023-04-02T01:19:53;10.30;99.90
4356;DHT22;64374;51.482;7.408;2023-04-02T01:22:35;10.10;99.90
4356;DHT22;64374;51.482;7.408;2023-04-02T01:25:12;10.00;99.90
4356;DHT22;64374;51.482;7.408;2023-04-02T01:27:48;10.00;99.90
4356;DHT22;64374;51.482;7.408;2023-04-02T01:30:20;10.20;99.90
4356;DHT22;64374;51.482;7.408;2023-04-02T01:32:49;10.50;99.90
4356;DHT22;64374;51.482;7.408;2023-04-02T01:35:17;10.40;99.90
4356;DHT22;64374;51.482;7.408;2023-04-02T01:37:51;10.20;99.90
4356;DHT22;64374;51.482;7.408;2023-04-02T01:40:33;10.20;99.90
4356;DHT22;64374;51.482;7.408;2023-04-02T01:43:17;10.20;99.90
4356;DHT22;64374;51.482;7.408;2023-04-02T01:45:50;10.20;99.90
4356;DHT22;64374;51.482;7.408;2023-04-02T01:48:21;10.20;99.90
4356;DHT22;64374;51.482;7.408;2023-04-02T01:50:52;10.30;99.90
4356;DHT22;64374;51.482;7.408;2023-04-02T01:53:24;10.20;99.90
4356;DHT22;64374;51.482;7.408;2023-04-02T01:55:56;10.10;99.90
4356;DHT22;64374;51.482;7.408;2023-04-02T01:58:27;10.00;99.90
4356;DHT22;64374;51.482;7.408;2023-04-02T02:01:03;10.00;99.90
4356;DHT22;64374;51.482;7.408;2023-04-02T02:03:34;10.00;99.90
4356;DHT22;64374;51.482;7.408;2023-04-02T02:06:05;10.20;99.90
4356;DHT22;64374;51.482;7.408;2023-04-02T02:08:43;10.40;99.90
4356;DHT22;64374;51.482;7.408;2023-04-02T02:11:34;10.30;99.90
4356;DHT22;64374;51.482;7.408;2023-04-02T02:14:08;10.30;99.90
4356;DHT22;64374;51.482;7.408;2023-04-02T02:16:42;10.30;99.90
4356;DHT22;64374;51.482;7.408;2023-04-02T02:19:35;10.40;99.90
4356;DHT22;64374;51.482;7.408;2023-04-02T02:22:09;10.10;99.90
4356;DHT22;64374;51.482;7.408;2023-04-02T02:24:39;10.00;99.90
4356;DHT22;64374;51.482;7.408;2023-04-02T02:27:53;9.80;99.90
4356;DHT22;64374;51.482;7.408;2023-04-02T02:30:26;9.80;99.90
4356;DHT22;64374;51.482;7.408;2023-04-02T02:33:01;9.60;99.90
4356;DHT22;64374;51.482;7.408;2023-04-02T02:35:35;9.40;99.90
4356;DHT22;64374;51.482;7.408;2023-04-02T02:38:34;9.30;99.90
4356;DHT22;64374;51.482;7.408;2023-04-02T02:41:17;9.70;99.90
4356;DHT22;64374;51.482;7.408;2023-04-02T02:43:56;9.90;99.90
4356;DHT22;64374;51.482;7.408;2023-04-02T02:46:28;10.00;99.90
4356;DHT22;64374;51.482;7.408;2023-04-02T02:49:01;10.00;99.90
4356;DHT22;64374;51.482;7.408;2023-04-02T02:51:39;9.70;99.90
4356;DHT22;64374;51.482;7.408;2023-04-02T02:54:15;9.60;99.90
4356;DHT22;64374;51.482;7.408;2023-04-02T02:56:48;9.70;99.90
4356;DHT22;64374;51.482;7.408;2023-04-02T02:59:20;9.70;99.90
4356;DHT22;64374;51.482;7.408;2023-04-02T03:01:49;9.70;99.90
4356;DHT22;64374;51.482;7.408;2023-04-02T03:04:21;9.70;99.90
4356;DHT22;64374;51.482;7.408;2023-04-02T03:06:56;9.90;99.90
4356;DHT22;64374;51.482;7.408;2023-04-02T03:09:33;10.10;99.90
4356;DHT22;64374;51.482;7.408;2023-04-02T03:12:11;10.10;99.90
4356;DHT22;64374;51.482;7.408;2023-04-02T03:14:52;10.00;99.90
4356;DHT22;64374;51.482;7.408;2023-04-02T03:17:27;9.90;99.90
4356;DHT22;64374;51.482;7.408;2023-04-02T03:20:02;9.70;99.90
4356;DHT22;64374;51.482;7.408;2023-04-02T03:22:39;9.80;99.90
4356;DHT22;64374;51.482;7.408;2023-04-02T03:25:20;9.50;99.90
4356;DHT22;64374;51.482;7.408;2023-04-02T03:27:59;9.50;99.90
4356;DHT22;64374;51.482;7.408;2023-04-02T03:30:37;9.60;99.90
4356;DHT22;64374;51.482;7.408;2023-04-02T03:33:14;9.70;99.90
4356;DHT22;64374;51.482;7.408;2023-04-02T03:35:53;9.20;99.90
4356;DHT22;64374;51.482;7.408;2023-04-02T03:38:28;8.90;99.90
4356;DHT22;64374;51.482;7.408;2023-04-02T03:41:02;8.90;99.90
4356;DHT22;64374;51.482;7.408;2023-04-02T03:43:38;9.10;99.90
4356;DHT22;64374;51.482;7.408;2023-04-02T03:46:20;9.40;99.90
4356;DHT22;64374;51.482;7.408;2023-04-02T03:48:54;9.40;99.90
4356;DHT22;64374;51.482;7.408;2023-04-02T03:51:29;9.40;99.90
4356;DHT22;64374;51.482;7.408;2023-04-02T03:54:01;9.50;99.90
4356;DHT22;64374;51.482;7.408;2023-04-02T03:56:32;9.20;99.90
4356;DHT22;64374;51.482;7.408;2023-04-02T03:59:14;9.20;99.90
4356;DHT22;64374;51.482;7.408;2023-04-02T04:01:48;9.20;99.90
4356;DHT22;64374;51.482;7.408;2023-04-02T04:04:22;9.30;99.90
4356;DHT22;64374;51.482;7.408;2023-04-02T04:06:55;9.30;99.90
4356;DHT22;64374;51.482;7.408;2023-04-02T04:09:26;9.50;99.90
4356;DHT22;64374;51.482;7.408;2023-04-02T04:12:06;9.70;99.90
4356;DHT22;64374;51.482;7.408;2023-04-02T04:14:38;9.60;99.90
4356;DHT22;64374;51.482;7.408;2023-04-02T04:17:16;9.50;99.90
4356;DHT22;64374;51.482;7.408;2023-04-02T04:19:58;9.40;99.90
4356;DHT22;64374;51.482;7.408;2023-04-02T04:22:36;9.50;99.90
4356;DHT22;64374;51.482;7.408;2023-04-02T04:25:19;9.00;99.90
4356;DHT22;64374;51.482;7.408;2023-04-02T04:28:00;9.00;99.90
4356;DHT22;64374;51.482;7.408;2023-04-02T04:30:46;9.10;99.90
4356;DHT22;64374;51.482;7.408;2023-04-02T04:33:21;9.00;99.90
4356;DHT22;64374;51.482;7.408;2023-04-02T04:35:58;8.90;99.90
4356;DHT22;64374;51.482;7.408;2023-04-02T04:38:36;9.20;99.90
4356;DHT22;64374;51.482;7.408;2023-04-02T04:41:13;8.80;99.90
4356;DHT22;64374;51.482;7.408;2023-04-02T04:43:48;8.70;99.90
4356;DHT22;64374;51.482;7.408;2023-04-02T04:46:21;8.70;99.90
4356;DHT22;64374;51.482;7.408;2023-04-02T04:48:59;8.50;99.90
4356;DHT22;64374;51.482;7.408;2023-04-02T04:51:35;8.80;99.90
4356;DHT22;64374;51.482;7.408;2023-04-02T04:54:11;8.70;99.90
4356;DHT22;64374;51.482;7.408;2023-04-02T04:56:45;8.40;99.90
4356;DHT22;64374;51.482;7.408;2023-04-02T04:59:21;8.50;99.90
4356;DHT22;64374;51.482;7.408;2023-04-02T05:01:58;8.50;99.90
4356;DHT22;64374;51.482;7.408;2023-04-02T05:04:32;8.60;99.90
4356;DHT22;64374;51.482;7.408;2023-04-02T05:07:09;8.90;99.90
4356;DHT22;64374;51.482;7.408;2023-04-02T05:09:50;9.30;99.90
4356;DHT22;64374;51.482;7.408;2023-04-02T05:12:31;9.50;99.90
4356;DHT22;64374;51.482;7.408;2023-04-02T05:15:14;9.30;99.90
4356;DHT22;64374;51.482;7.408;2023-04-02T05:17:49;9.30;99.90
4356;DHT22;64374;51.482;7.408;2023-04-02T05:20:25;9.20;99.90
4356;DHT22;64374;51.482;7.408;2023-04-02T05:22:59;9.10;99.90
4356;DHT22;64374;51.482;7.408;2023-04-02T05:25:31;8.90;99.90
4356;DHT22;64374;51.482;7.408;2023-04-02T05:28:06;8.80;99.90
4356;DHT22;64374;51.482;7.408;2023-04-02T05:30:48;8.60;99.90
4356;DHT22;64374;51.482;7.408;2023-04-02T05:33:23;8.80;99.90
4356;DHT22;64374;51.482;7.408;2023-04-02T05:36:00;9.10;99.90
4356;DHT22;64374;51.482;7.408;2023-04-02T05:38:35;9.30;99.90
4356;DHT22;64374;51.482;7.408;2023-04-02T05:41:14;9.30;99.90
4356;DHT22;64374;51.482;7.408;2023-04-02T05:43:47;9.50;99.90
4356;DHT22;64374;51.482;7.408;2023-04-02T05:46:19;9.70;99.90
4356;DHT22;64374;51.482;7.408;2023-04-02T05:48:54;9.90;99.90
4356;DHT22;64374;51.482;7.408;2023-04-02T05:51:29;9.50;99.90
4356;DHT22;64374;51.482;7.408;2023-04-02T05:54:00;9.50;99.90
4356;DHT22;64374;51.482;7.408;2023-04-02T05:56:35;9.30;99.90
4356;DHT22;64374;51.482;7.408;2023-04-02T05:59:10;9.30;99.90
4356;DHT22;64374;51.482;7.408;2023-04-02T06:01:42;9.70;99.90
4356;DHT22;64374;51.482;7.408;2023-04-02T06:04:23;9.90;99.90
4356;DHT22;64374;51.482;7.408;2023-04-02T06:06:58;10.10;99.90
4356;DHT22;64374;51.482;7.408;2023-04-02T06:09:35;9.80;99.90
4356;DHT22;64374;51.482;7.408;2023-04-02T06:12:20;9.70;99.90
4356;DHT22;64374;51.482;7.408;2023-04-02T06:14:51;9.50;99.90
4356;DHT22;64374;51.482;7.408;2023-04-02T06:17:22;9.50;99.90
4356;DHT22;64374;51.482;7.408;2023-04-02T06:19:53;9.50;99.90
4356;DHT22;64374;51.482;7.408;2023-04-02T06:22:26;9.50;99.90
4356;DHT22;64374;51.482;7.408;2023-04-02T06:25:01;9.50;99.90
4356;DHT22;64374;51.482;7.408;2023-04-02T06:27:38;9.60;99.90
4356;DHT22;64374;51.482;7.408;2023-04-02T06:30:16;9.30;99.90
4356;DHT22;64374;51.482;7.408;2023-04-02T06:32:49;9.20;99.90
4356;DHT22;64374;51.482;7.408;2023-04-02T06:35:22;9.30;99.90
4356;DHT22;64374;51.482;7.408;2023-04-02T06:38:00;9.30;99.90
4356;DHT22;64374;51.482;7.408;2023-04-02T06:40:39;9.40;99.90
4356;DHT22;64374;51.482;7.408;2023-04-02T06:43:36;9.20;99.90
4356;DHT22;64374;51.482;7.408;2023-04-02T06:46:36;9.20;99.90
4356;DHT22;64374;51.482;7.408;2023-04-02T06:49:16;9.30;99.90
4356;DHT22;64374;51.482;7.408;2023-04-02T06:51:51;9.50;99.90
4356;DHT22;64374;51.482;7.408;2023-04-02T06:54:22;9.70;99.90
4356;DHT22;64374;51.482;7.408;2023-04-02T06:56:58;9.70;99.90
4356;DHT22;64374;51.482;7.408;2023-04-02T06:59:40;9.60;99.90
4356;DHT22;64374;51.482;7.408;2023-04-02T07:02:25;9.50;99.90
4356;DHT22;64374;51.482;7.408;2023-04-02T07:05:02;9.70;99.90
4356;DHT22;64374;51.482;7.408;2023-04-02T07:07:32;9.80;99.90
4356;DHT22;64374;51.482;7.408;2023-04-02T07:10:04;9.90;99.90
4356;DHT22;64374;51.482;7.408;2023-04-02T07:12:34;9.60;99.90
4356;DHT22;64374;51.482;7.408;2023-04-02T07:15:05;9.40;99.90
4356;DHT22;64374;51.482;7.408;2023-04-02T07:17:34;9.30;99.90
4356;DHT22;64374;51.482;7.408;2023-04-02T07:20:04;9.30;99.90
4356;DHT22;64374;51.482;7.408;2023-04-02T07:22:32;9.30;99.90
4356;DHT22;64374;51.482;7.408;2023-04-02T07:25:02;9.50;99.90
4356;DHT22;64374;51.482;7.408;2023-04-02T07:27:31;9.30;99.90
4356;DHT22;64374;51.482;7.408;2023-04-02T07:29:59;9.30;99.90
4356;DHT22;64374;51.482;7.408;2023-04-02T07:32:29;9.20;99.90
4356;DHT22;64374;51.482;7.408;2023-04-02T07:34:58;9.00;99.90
4356;DHT22;64374;51.482;7.408;2023-04-02T07:37:26;8.80;99.90
4356;DHT22;64374;51.482;7.408;2023-04-02T07:39:54;9.00;99.90
4356;DHT22;64374;51.482;7.408;2023-04-02T07:42:22;9.20;99.90
4356;DHT22;64374;51.482;7.408;2023-04-02T07:44:51;9.20;99.90
4356;DHT22;64374;51.482;7.408;2023-04-02T07:47:20;9.30;99.90
4356;DHT22;64374;51.482;7.408;2023-04-02T07:49:50;9.30;99.90
4356;DHT22;64374;51.482;7.408;2023-04-02T07:52:20;9.00;99.90
4356;DHT22;64374;51.482;7.408;2023-04-02T07:54:49;8.80;99.90
4356;DHT22;64374;51.482;7.408;2023-04-02T07:57:17;8.70;99.90
4356;DHT22;64374;51.482;7.408;2023-04-02T07:59:46;8.70;99.90
4356;DHT22;64374;51.482;7.408;2023-04-02T08:02:18;8.80;99.90
4356;DHT22;64374;51.482;7.408;2023-04-02T08:04:47;9.10;99.90
4356;DHT22;64374;51.482;7.408;2023-04-02T08:07:17;9.30;99.90
4356;DHT22;64374;51.482;7.408;2023-04-02T08:09:46;9.40;99.90
4356;DHT22;64374;51.482;7.408;2023-04-02T08:12:14;9.00;99.90
4356;DHT22;64374;51.482;7.408;2023-04-02T08:14:42;8.90;99.90
4356;DHT22;64374;51.482;7.408;2023-04-02T08:17:11;8.90;99.90
4356;DHT22;64374;51.482;7.408;2023-04-02T08:19:39;9.00;99.90
4356;DHT22;64374;51.482;7.408;2023-04-02T08:22:22;8.90;99.90
4356;DHT22;64374;51.482;7.408;2023-04-02T08:24:50;8.90;99.90
4356;DHT22;64374;51.482;7.408;2023-04-02T08:27:18;8.80;99.90
4356;DHT22;64374;51.482;7.408;2023-04-02T08:29:46;8.80;99.90
4356;DHT22;64374;51.482;7.408;2023-04-02T08:32:15;8.70;99.90
4356;DHT22;64374;51.482;7.408;2023-04-02T08:34:47;8.80;99.90
4356;DHT22;64374;51.482;7.408;2023-04-02T08:37:15;9.00;99.90
4356;DHT22;64374;51.482;7.408;2023-04-02T08:39:45;9.10;99.90
4356;DHT22;64374;51.482;7.408;2023-04-02T08:42:21;9.20;99.90
4356;DHT22;64374;51.482;7.408;2023-04-02T08:44:59;9.10;99.90
4356;DHT22;64374;51.482;7.408;2023-04-02T08:47:53;9.30;99.90
4356;DHT22;64374;51.482;7.408;2023-04-02T08:50:27;9.30;99.90
4356;DHT22;64374;51.482;7.408;2023-04-02T08:53:02;9.50;99.90
4356;DHT22;64374;51.482;7.408;2023-04-02T08:55:37;9.70;99.90
4356;DHT22;64374;51.482;7.408;2023-04-02T08:58:19;9.40;99.90
4356;DHT22;64374;51.482;7.408;2023-04-02T09:00:53;9.40;99.90
4356;DHT22;64374;51.482;7.408;2023-04-02T09:03:27;9.50;99.90
4356;DHT22;64374;51.482;7.408;2023-04-02T09:05:59;9.50;99.90
4356;DHT22;64374;51.482;7.408;2023-04-02T09:08:30;9.40;99.90
4356;DHT22;64374;51.482;7.408;2023-04-02T09:11:06;8.90;99.90
4356;DHT22;64374;51.482;7.408;2023-04-02T09:13:37;8.70;99.90
4356;DHT22;64374;51.482;7.408;2023-04-02T09:16:10;8.70;99.90
4356;DHT22;64374;51.482;7.408;2023-04-02T09:18:42;8.70;99.90
4356;DHT22;64374;51.482;7.408;2023-04-02T09:21:24;8.60;99.90
4356;DHT22;64374;51.482;7.408;2023-04-02T09:23:56;8.60;99.90
4356;DHT22;64374;51.482;7.408;2023-04-02T09:26:27;8.80;99.90
4356;DHT22;64374;51.482;7.408;2023-04-02T09:29:22;9.10;99.90
4356;DHT22;64374;51.482;7.408;2023-04-02T09:31:56;9.30;99.90
4356;DHT22;64374;51.482;7.408;2023-04-02T09:34:31;9.30;99.90
4356;DHT22;64374;51.482;7.408;2023-04-02T09:37:07;9.40;99.90
4356;DHT22;64374;51.482;7.408;2023-04-02T09:39:36;9.60;99.90
4356;DHT22;64374;51.482;7.408;2023-04-02T09:42:07;9.40;99.90
4356;DHT22;64374;51.482;7.408;2023-04-02T09:45:14;9.30;99.90
4356;DHT22;64374;51.482;7.408;2023-04-02T09:47:47;9.40;99.90
4356;DHT22;64374;51.482;7.408;2023-04-02T09:50:27;9.30;99.90
4356;DHT22;64374;51.482;7.408;2023-04-02T09:52:58;9.30;99.90
4356;DHT22;64374;51.482;7.408;2023-04-02T09:55:44;9.50;99.90
4356;DHT22;64374;51.482;7.408;2023-04-02T09:58:15;9.70;99.90
4356;DHT22;64374;51.482;7.408;2023-04-02T10:00:51;10.00;99.90
4356;DHT22;64374;51.482;7.408;2023-04-02T10:03:24;9.80;99.90
4356;DHT22;64374;51.482;7.408;2023-04-02T10:06:07;9.50;99.90
4356;DHT22;64374;51.482;7.408;2023-04-02T10:08:38;9.50;99.90
4356;DHT22;64374;51.482;7.408;2023-04-02T10:11:09;9.20;99.90
4356;DHT22;64374;51.482;7.408;2023-04-02T10:13:48;9.00;99.90
4356;DHT22;64374;51.482;7.408;2023-04-02T10:16:22;9.30;99.90
4356;DHT22;64374;51.482;7.408;2023-04-02T10:18:56;9.30;99.90
4356;DHT22;64374;51.482;7.408;2023-04-02T10:21:28;9.10;99.90
4356;DHT22;64374;51.482;7.408;2023-04-02T10:23:58;8.80;99.90
4356;DHT22;64374;51.482;7.408;2023-04-02T10:26:44;9.00;99.90
4356;DHT22;64374;51.482;7.408;2023-04-02T10:29:33;9.20;99.90
4356;DHT22;64374;51.482;7.408;2023-04-02T10:32:08;9.50;99.90
4356;DHT22;64374;51.482;7.408;2023-04-02T10:34:44;9.50;99.90
4356;DHT22;64374;51.482;7.408;2023-04-02T10:41:18;9.90;99.90
4356;DHT22;64374;51.482;7.408;2023-04-02T10:44:13;10.00;99.90
4356;DHT22;64374;51.482;7.408;2023-04-02T10:46:59;10.00;99.90
4356;DHT22;64374;51.482;7.408;2023-04-02T10:49:38;9.70;99.90
4356;DHT22;64374;51.482;7.408;2023-04-02T10:52:14;9.40;99.90
4356;DHT22;64374;51.482;7.408;2023-04-02T10:54:48;9.50;99.90
4356;DHT22;64374;51.482;7.408;2023-04-02T10:57:25;9.70;99.90
4356;DHT22;64374;51.482;7.408;2023-04-02T10:59:58;9.70;99.90
4356;DHT22;64374;51.482;7.408;2023-04-02T11:02:42;9.70;99.90
4356;DHT22;64374;51.482;7.408;2023-04-02T11:05:40;9.90;99.90
4356;DHT22;64374;51.482;7.408;2023-04-02T11:08:15;9.90;99.90
4356;DHT22;64374;51.482;7.408;2023-04-02T11:10:52;10.20;99.90
4356;DHT22;64374;51.482;7.408;2023-04-02T11:13:27;10.40;99.90
4356;DHT22;64374;51.482;7.408;2023-04-02T11:15:58;10.20;99.90
4356;DHT22;64374;51.482;7.408;2023-04-02T11:18:30;9.70;99.90
4356;DHT22;64374;51.482;7.408;2023-04-02T11:21:04;9.30;99.90
4356;DHT22;64374;51.482;7.408;2023-04-02T11:23:38;9.20;99.90
4356;DHT22;64374;51.482;7.408;2023-04-02T11:26:36;9.00;99.90
4356;DHT22;64374;51.482;7.408;2023-04-02T11:29:17;9.10;99.90
4356;DHT22;64374;51.482;7.408;2023-04-02T11:31:48;9.10;99.90
4356;DHT22;64374;51.482;7.408;2023-04-02T11:37:37;9.40;99.90
4356;DHT22;64374;51.482;7.408;2023-04-02T11:43:46;9.90;99.90
4356;DHT22;64374;51.482;7.408;2023-04-02T11:46:41;10.20;99.90
4356;DHT22;64374;51.482;7.408;2023-04-02T11:49:34;9.90;99.90
4356;DHT22;64374;51.482;7.408;2023-04-02T11:52:17;9.70;99.90
4356;DHT22;64374;51.482;7.408;2023-04-02T11:54:55;9.60;99.90
4356;DHT22;64374;51.482;7.408;2023-04-02T11:57:45;9.60;99.90
4356;DHT22;64374;51.482;7.408;2023-04-02T12:00:27;9.60;99.90
4356;DHT22;64374;51.482;7.408;2023-04-02T12:03:14;10.00;99.90
4356;DHT22;64374;51.482;7.408;2023-04-02T12:05:50;10.30;99.90
4356;DHT22;64374;51.482;7.408;2023-04-02T12:08:35;10.30;99.90
4356;DHT22;64374;51.482;7.408;2023-04-02T12:11:32;10.30;99.90
4356;DHT22;64374;51.482;7.408;2023-04-02T12:14:27;10.00;99.90
4356;DHT22;64374;51.482;7.408;2023-04-02T12:16:54;9.90;99.90
4356;DHT22;64374;51.482;7.408;2023-04-02T12:19:23;9.90;99.90
4356;DHT22;64374;51.482;7.408;2023-04-02T12:21:52;10.10;99.90
4356;DHT22;64374;51.482;7.408;2023-04-02T12:24:23;10.10;99.90
4356;DHT22;64374;51.482;7.408;2023-04-02T12:27:08;10.30;99.90
4356;DHT22;64374;51.482;7.408;2023-04-02T12:29:41;10.20;99.90
4356;DHT22;64374;51.482;7.408;2023-04-02T12:32:19;10.10;99.90
4356;DHT22;64374;51.482;7.408;2023-04-02T12:34:51;10.20;99.90
4356;DHT22;64374;51.482;7.408;2023-04-02T12:37:25;10.20;99.90
4356;DHT22;64374;51.482;7.408;2023-04-02T12:39:56;10.10;99.90
4356;DHT22;64374;51.482;7.408;2023-04-02T12:42:28;10.00;99.90
4356;DHT22;64374;51.482;7.408;2023-04-02T12:44:59;10.20;99.90
4356;DHT22;64374;51.482;7.408;2023-04-02T12:47:28;10.10;99.90
4356;DHT22;64374;51.482;7.408;2023-04-02T12:49:58;10.10;99.90
4356;DHT22;64374;51.482;7.408;2023-04-02T12:52:27;10.30;99.90
4356;DHT22;64374;51.482;7.408;2023-04-02T12:54:59;10.30;99.90
4356;DHT22;64374;51.482;7.408;2023-04-02T12:57:36;10.10;99.90
4356;DHT22;64374;51.482;7.408;2023-04-02T13:00:28;10.10;99.90
4356;DHT22;64374;51.482;7.408;2023-04-02T13:03:00;10.10;99.90
4356;DHT22;64374;51.482;7.408;2023-04-02T13:05:34;10.10;99.90
4356;DHT22;64374;51.482;7.408;2023-04-02T13:08:12;10.40;99.90
4356;DHT22;64374;51.482;7.408;2023-04-02T13:10:43;10.50;99.90
4356;DHT22;64374;51.482;7.408;2023-04-02T13:13:23;10.70;99.90
4356;DHT22;64374;51.482;7.408;2023-04-02T13:16:05;10.80;99.90
4356;DHT22;64374;51.482;7.408;2023-04-02T13:18:36;10.90;99.90
4356;DHT22;64374;51.482;7.408;2023-04-02T13:21:23;11.10;99.90
4356;DHT22;64374;51.482;7.408;2023-04-02T13:23:55;10.80;99.90
4356;DHT22;64374;51.482;7.408;2023-04-02T13:26:24;10.70;99.90
4356;DHT22;64374;51.482;7.408;2023-04-02T13:28:58;10.50;99.90
4356;DHT22;64374;51.482;7.408;2023-04-02T13:31:27;10.60;99.90
4356;DHT22;64374;51.482;7.408;2023-04-02T13:33:55;10.90;99.90
4356;DHT22;64374;51.482;7.408;2023-04-02T13:36:24;11.00;99.90
4356;DHT22;64374;51.482;7.408;2023-04-02T13:38:55;11.10;99.90
4356;DHT22;64374;51.482;7.408;2023-04-02T13:41:24;11.20;99.90
4356;DHT22;64374;51.482;7.408;2023-04-02T13:43:54;11.10;99.90
4356;DHT22;64374;51.482;7.408;2023-04-02T13:46:27;10.90;99.90
4356;DHT22;64374;51.482;7.408;2023-04-02T13:48:57;11.20;99.90
4356;DHT22;64374;51.482;7.408;2023-04-02T13:51:33;11.40;99.90
4356;DHT22;64374;51.482;7.408;2023-04-02T13:54:05;11.40;99.90
4356;DHT22;64374;51.482;7.408;2023-04-02T13:56:35;11.20;99.90
4356;DHT22;64374;51.482;7.408;2023-04-02T13:59:04;10.90;99.90
4356;DHT22;64374;51.482;7.408;2023-04-02T14:01:35;11.10;99.90
4356;DHT22;64374;51.482;7.408;2023-04-02T14:04:05;11.10;99.90
4356;DHT22;64374;51.482;7.408;2023-04-02T14:07:00;10.70;99.90
4356;DHT22;64374;51.482;7.408;2023-04-02T14:09:39;10.40;99.90
4356;DHT22;64374;51.482;7.408;2023-04-02T14:12:15;10.30;99.90
4356;DHT22;64374;51.482;7.408;2023-04-02T14:15:13;10.40;99.90
4356;DHT22;64374;51.482;7.408;2023-04-02T14:20:58;11.50;99.90
4356;DHT22;64374;51.482;7.408;2023-04-02T14:23:43;12.10;99.90
4356;DHT22;64374;51.482;7.408;2023-04-02T14:26:19;12.00;99.90
4356;DHT22;64374;51.482;7.408;2023-04-02T14:28:56;12.00;99.90
4356;DHT22;64374;51.482;7.408;2023-04-02T14:31:33;12.30;99.90
4356;DHT22;64374;51.482;7.408;2023-04-02T14:34:15;12.20;99.90
4356;DHT22;64374;51.482;7.408;2023-04-02T14:36:53;12.30;99.90
4356;DHT22;64374;51.482;7.408;2023-04-02T14:40:03;12.40;99.90
4356;DHT22;64374;51.482;7.408;2023-04-02T14:42:41;12.50;99.90
4356;DHT22;64374;51.482;7.408;2023-04-02T14:45:16;12.10;99.90
4356;DHT22;64374;51.482;7.408;2023-04-02T14:47:52;12.10;99.90
4356;DHT22;64374;51.482;7.408;2023-04-02T14:50:26;12.20;99.90
4356;DHT22;64374;51.482;7.408;2023-04-02T14:53:11;12.20;99.90
4356;DHT22;64374;51.482;7.408;2023-04-02T14:55:46;12.30;99.90
4356;DHT22;64374;51.482;7.408;2023-04-02T14:58:22;12.60;99.90
4356;DHT22;64374;51.482;7.408;2023-04-02T15:00:55;12.50;99.90
4356;DHT22;64374;51.482;7.408;2023-04-02T15:03:31;12.50;99.90
4356;DHT22;64374;51.482;7.408;2023-04-02T15:06:08;12.30;99.90
4356;DHT22;64374;51.482;7.408;2023-04-02T15:08:39;12.00;99.90
4356;DHT22;64374;51.482;7.408;2023-04-02T15:11:25;11.90;99.90
4356;DHT22;64374;51.482;7.408;2023-04-02T15:13:59;12.00;99.90
4356;DHT22;64374;51.482;7.408;2023-04-02T15:16:30;12.10;99.90
4356;DHT22;64374;51.482;7.408;2023-04-02T15:19:00;12.10;99.90
4356;DHT22;64374;51.482;7.408;2023-04-02T15:21:36;12.20;99.90
4356;DHT22;64374;51.482;7.408;2023-04-02T15:24:30;12.20;99.90
4356;DHT22;64374;51.482;7.408;2023-04-02T15:27:13;12.10;99.90
4356;DHT22;64374;51.482;7.408;2023-04-02T15:29:57;11.90;99.90
4356;DHT22;64374;51.482;7.408;2023-04-02T15:32:34;11.80;99.90
4356;DHT22;64374;51.482;7.408;2023-04-02T15:35:11;12.00;99.90
4356;DHT22;64374;51.482;7.408;2023-04-02T15:37:52;12.40;99.90
4356;DHT22;64374;51.482;7.408;2023-04-02T15:40:43;12.60;99.90
4356;DHT22;64374;51.482;7.408;2023-04-02T15:43:18;12.70;99.90
4356;DHT22;64374;51.482;7.408;2023-04-02T15:45:56;12.40;99.90
4356;DHT22;64374;51.482;7.408;2023-04-02T15:49:00;12.50;99.90
4356;DHT22;64374;51.482;7.408;2023-04-02T15:51:38;12.20;99.90
4356;DHT22;64374;51.482;7.408;2023-04-02T15:54:21;12.20;99.90
4356;DHT22;64374;51.482;7.408;2023-04-02T15:57:02;12.20;99.90
4356;DHT22;64374;51.482;7.408;2023-04-02T16:00:02;12.20;99.90
4356;DHT22;64374;51.482;7.408;2023-04-02T16:03:19;12.00;99.90
4356;DHT22;64374;51.482;7.408;2023-04-02T16:06:19;11.80;99.90
4356;DHT22;64374;51.482;7.408;2023-04-02T16:09:16;11.80;99.90
4356;DHT22;64374;51.482;7.408;2023-04-02T16:11:45;12.00;99.90
4356;DHT22;64374;51.482;7.408;2023-04-02T16:14:19;12.10;99.90
4356;DHT22;64374;51.482;7.408;2023-04-02T16:16:54;12.10;99.90
4356;DHT22;64374;51.482;7.408;2023-04-02T16:19:29;12.00;99.90
4356;DHT22;64374;51.482;7.408;2023-04-02T16:22:03;12.10;99.90
4356;DHT22;64374;51.482;7.408;2023-04-02T16:24:34;12.00;99.90
4356;DHT22;64374;51.482;7.408;2023-04-02T16:27:16;12.00;99.90
4356;DHT22;64374;51.482;7.408;2023-04-02T16:30:10;11.90;99.90
4356;DHT22;64374;51.482;7.408;2023-04-02T16:32:52;11.70;99.90
4356;DHT22;64374;51.482;7.408;2023-04-02T16:35:30;11.70;99.90
4356;DHT22;64374;51.482;7.408;2023-04-02T16:38:19;11.70;99.90
4356;DHT22;64374;51.482;7.408;2023-04-02T16:40:58;11.70;99.90
4356;DHT22;64374;51.482;7.408;2023-04-02T16:43:40;12.00;99.90
4356;DHT22;64374;51.482;7.408;2023-04-02T16:46:21;12.10;99.90
4356;DHT22;64374;51.482;7.408;2023-04-02T16:49:15;11.80;99.90
4356;DHT22;64374;51.482;7.408;2023-04-02T16:51:54;11.80;99.90
4356;DHT22;64374;51.482;7.408;2023-04-02T16:54:31;11.80;99.90
4356;DHT22;64374;51.482;7.408;2023-04-02T16:57:18;11.60;99.90
4356;DHT22;64374;51.482;7.408;2023-04-02T16:59:56;11.30;99.90
4356;DHT22;64374;51.482;7.408;2023-04-02T17:02:37;11.40;99.90
4356;DHT22;64374;51.482;7.408;2023-04-02T17:05:16;11.70;99.90
4356;DHT22;64374;51.482;7.408;2023-04-02T17:07:51;11.60;99.90
4356;DHT22;64374;51.482;7.408;2023-04-02T17:10:30;11.80;99.90